Whitney, Canada
Current Conditions -  °F | °C
As of 11:00 AM on Thursday 18 Dec 2014 (Local Time) from CYWA Reporting Station
Overcast Overcast  
Wind Chill: 15°   Ceiling: 1400
Heat Index: 25°   Visibility: 9mi
Dew Point: 19°   Wind: 10mph
Humidity: 80%   Direction: 300°WNW
Pressure: 30.04"   Gusts: NA
Location:  45.5°N, 78.23°W
Report Text: CYWA 181600Z AUTO 30009KT 9SM OVC014 M04/M07 A3004 RMK SLP181
Loading
Personal Weather Stations






























Interactive Weather Map New forecast layout! Learn more

10-Day Weather Forecast

Advertisements
Track Severe Weather on mobile